createdAt,value
2019-02-05T00:00:19.724Z,99407.77
2019-02-05T00:02:46.538Z,99425.25
2019-02-05T00:05:13.525Z,99422.42
2019-02-05T00:07:40.026Z,99431.13
2019-02-05T00:10:06.809Z,99437.39
2019-02-05T00:12:33.382Z,99438.22
2019-02-05T00:15:00.179Z,99436.84
2019-02-05T00:17:26.717Z,99434.42
2019-02-05T00:19:53.312Z,99442.73
2019-02-05T00:22:19.906Z,99433.97
2019-02-05T00:24:46.568Z,99437.30
2019-02-05T00:27:13.158Z,99435.84
2019-02-05T00:29:39.919Z,99437.60
2019-02-05T00:32:06.473Z,99425.97
2019-02-05T00:34:32.985Z,99425.62
2019-02-05T00:36:59.568Z,99420.41
2019-02-05T00:39:26.035Z,99409.27
2019-02-05T00:41:52.972Z,99399.30
2019-02-05T00:44:19.426Z,99407.36
2019-02-05T00:46:45.948Z,99403.69
2019-02-05T00:49:12.395Z,99402.77
2019-02-05T00:51:40.128Z,99419.04
2019-02-05T00:54:07.128Z,99417.82
2019-02-05T00:56:33.931Z,99416.03
2019-02-05T00:59:01.421Z,99400.22
2019-02-05T01:01:27.941Z,99396.56
2019-02-05T01:03:54.479Z,99397.02
2019-02-05T01:06:21.242Z,99388.39
2019-02-05T01:08:47.776Z,99395.73
2019-02-05T01:11:14.288Z,99392.30
2019-02-05T01:13:40.775Z,99380.38
2019-02-05T01:16:07.380Z,99381.25
2019-02-05T01:18:34.326Z,99372.08
2019-02-05T01:21:02.386Z,99372.91
2019-02-05T01:23:28.924Z,99367.02
2019-02-05T01:25:55.381Z,99382.91
2019-02-05T01:28:21.900Z,99380.95
2019-02-05T01:30:48.498Z,99388.25
2019-02-05T01:33:15.236Z,99394.59
2019-02-05T01:35:42.152Z,99396.89
2019-02-05T01:38:08.914Z,99400.32
2019-02-05T01:40:35.421Z,99399.75
2019-02-05T01:43:01.898Z,99391.19
2019-02-05T01:45:28.372Z,99388.45
2019-02-05T01:47:55.333Z,99392.83
2019-02-05T01:50:23.801Z,99400.86
2019-02-05T01:52:50.255Z,99401.73
2019-02-05T01:55:17.013Z,99405.41
2019-02-05T01:57:43.789Z,99416.63
2019-02-05T02:00:13.460Z,99416.99
2019-02-05T02:02:40.102Z,99407.98
2019-02-05T02:05:07.291Z,99404.07
2019-02-05T02:07:34.097Z,99399.36
2019-02-05T02:10:00.625Z,99410.91
2019-02-05T02:12:27.215Z,99397.65
2019-02-05T02:14:54.669Z,99394.52
2019-02-05T02:17:21.240Z,99384.89
2019-02-05T02:19:47.699Z,99384.34
2019-02-05T02:22:14.141Z,99380.20
2019-02-05T02:24:40.888Z,99373.58
2019-02-05T02:27:07.471Z,99381.08
2019-02-05T02:29:34.054Z,99370.13
2019-02-05T02:32:01.155Z,99377.38
2019-02-05T02:34:27.652Z,99373.50
2019-02-05T02:36:54.409Z,99372.62
2019-02-05T02:39:21.058Z,99373.55
2019-02-05T02:41:47.530Z,99382.47
2019-02-05T02:44:14.048Z,99375.28
2019-02-05T02:46:40.506Z,99372.20
2019-02-05T02:49:06.970Z,99372.16
2019-02-05T02:51:33.514Z,99365.28
2019-02-05T02:54:00.195Z,99365.33
2019-02-05T02:56:26.673Z,99364.45
2019-02-05T02:58:53.148Z,99349.47
2019-02-05T03:01:19.702Z,99344.22
2019-02-05T03:03:46.302Z,99339.51
2019-02-05T03:06:13.206Z,99314.73
2019-02-05T03:08:39.786Z,99313.51
2019-02-05T03:11:06.687Z,99311.02
2019-02-05T03:13:33.591Z,99315.27
2019-02-05T03:16:00.192Z,99320.31
2019-02-05T03:18:28.777Z,99319.77
2019-02-05T03:20:55.526Z,99337.89
2019-02-05T03:23:22.313Z,99330.92
2019-02-05T03:25:49.079Z,99333.97
2019-02-05T03:28:15.884Z,99343.72
2019-02-05T03:30:42.378Z,99344.30
2019-02-05T03:33:08.828Z,99359.43
2019-02-05T03:35:36.116Z,99357.47
2019-02-05T03:38:03.127Z,99352.46
2019-02-05T03:41:00.592Z,99356.38
2019-02-05T03:43:27.247Z,99357.53
2019-02-05T03:45:55.156Z,99368.57
2019-02-05T03:48:22.205Z,99366.98
2019-02-05T03:50:50.963Z,99362.91
2019-02-05T03:53:19.072Z,99365.03
2019-02-05T03:56:01.033Z,99362.83
2019-02-05T03:58:36.099Z,99359.95
2019-02-05T04:01:35.741Z,99355.09
2019-02-05T04:04:34.749Z,99374.47
2019-02-05T04:07:18.849Z,99386.55
2019-02-05T04:09:58.741Z,99389.97
2019-02-05T04:13:20.404Z,99397.10
2019-02-05T04:16:04.921Z,99400.52
2019-02-05T04:19:06.151Z,99408.88
2019-02-05T04:22:26.766Z,99410.12
2019-02-05T04:25:19.215Z,99410.89
2019-02-05T04:27:58.368Z,99406.19
2019-02-05T04:30:57.778Z,99396.36
2019-02-05T04:34:21.428Z,99400.86
2019-02-05T04:37:39.329Z,99398.07
2019-02-05T04:40:31.024Z,99392.11
2019-02-05T04:43:20.193Z,99402.61
2019-02-05T04:46:21.852Z,99401.41
2019-02-05T04:49:33.611Z,99403.99
2019-02-05T04:52:29.416Z,99410.08
2019-02-05T04:55:36.532Z,99410.70
2019-02-05T04:58:25.040Z,99422.67
2019-02-05T05:01:22.521Z,99406.74
2019-02-05T05:04:20.692Z,99398.53
2019-02-05T05:07:27.930Z,99403.16
2019-02-05T05:09:58.285Z,99396.81
2019-02-05T05:12:26.875Z,99405.86
2019-02-05T05:14:54.675Z,99409.28
2019-02-05T05:17:21.580Z,99410.20
2019-02-05T05:19:48.786Z,99403.28
2019-02-05T05:22:15.837Z,99407.24
2019-02-05T05:24:42.953Z,99401.20
2019-02-05T05:27:10.815Z,99406.45
2019-02-05T05:29:37.387Z,99401.45
2019-02-05T05:32:04.487Z,99397.66
2019-02-05T05:34:31.041Z,99390.84
2019-02-05T05:36:56.901Z,99398.86
2019-02-05T05:39:23.415Z,99404.48
2019-02-05T05:41:49.907Z,99400.16
2019-02-05T05:44:16.762Z,99397.77
2019-02-05T05:46:43.483Z,99396.81
2019-02-05T05:49:10.442Z,99396.98
2019-02-05T05:51:37.246Z,99395.27
2019-02-05T05:54:03.891Z,99395.35
2019-02-05T05:56:30.540Z,99400.52
2019-02-05T05:58:57.346Z,99398.47
2019-02-05T06:01:24.877Z,99399.89
2019-02-05T06:03:51.385Z,99406.81
2019-02-05T06:06:17.906Z,99417.27
2019-02-05T06:08:44.481Z,99406.17
2019-02-05T06:11:10.997Z,99402.41
2019-02-05T06:13:37.570Z,99404.24
2019-02-05T06:16:04.137Z,99406.53
2019-02-05T06:18:30.802Z,99394.92
2019-02-05T06:20:57.262Z,99398.43
2019-02-05T06:23:23.785Z,99398.47
2019-02-05T06:25:50.679Z,99398.16
2019-02-05T06:28:17.315Z,99393.87
2019-02-05T06:30:44.248Z,99395.50
2019-02-05T06:33:11.698Z,99396.03
2019-02-05T06:35:38.236Z,99396.41
2019-02-05T06:38:04.758Z,99389.00
2019-02-05T06:40:31.543Z,99391.09
2019-02-05T06:42:58.047Z,99395.01
2019-02-05T06:45:24.795Z,99393.30
2019-02-05T06:47:51.790Z,99391.05
2019-02-05T06:50:18.267Z,99401.28
2019-02-05T06:52:49.027Z,99406.37
2019-02-05T06:55:15.803Z,99405.95
2019-02-05T06:57:42.546Z,99419.50
2019-02-05T07:00:13.129Z,99419.92
2019-02-05T07:02:39.594Z,99418.20
2019-02-05T07:05:07.416Z,99411.70
2019-02-05T07:07:33.892Z,99417.17
2019-02-05T07:10:01.630Z,99416.13
2019-02-05T07:12:28.544Z,99408.44
2019-02-05T07:14:55.068Z,99415.06
2019-02-05T07:17:21.560Z,99413.84
2019-02-05T07:19:48.088Z,99416.09
2019-02-05T07:22:17.776Z,99415.75
2019-02-05T07:24:44.596Z,99420.13
2019-02-05T07:27:11.097Z,99430.59
2019-02-05T07:29:37.717Z,99427.97
2019-02-05T07:32:04.817Z,99434.93
2019-02-05T07:34:31.467Z,99436.30
2019-02-05T07:36:58.396Z,99436.72
2019-02-05T07:39:27.543Z,99445.41
2019-02-05T07:41:53.416Z,99447.80
2019-02-05T07:44:19.919Z,99454.99
2019-02-05T07:46:46.494Z,99452.59
2019-02-05T07:49:13.115Z,99464.25
2019-02-05T07:51:39.652Z,99467.75
2019-02-05T07:54:09.796Z,99467.83
2019-02-05T07:56:41.029Z,99467.56
2019-02-05T07:59:17.294Z,99473.27
2019-02-05T08:01:46.948Z,99479.78
2019-02-05T08:04:25.791Z,99485.87
2019-02-05T08:07:01.977Z,99477.27
2019-02-05T08:09:40.672Z,99475.13
2019-02-05T08:12:17.667Z,99481.27
2019-02-05T08:14:52.529Z,99471.12
2019-02-05T08:17:23.670Z,99481.98
2019-02-05T08:19:54.639Z,99481.30
2019-02-05T08:22:32.263Z,99487.95
2019-02-05T08:25:02.890Z,99497.20
2019-02-05T08:27:31.994Z,99499.17
2019-02-05T08:29:58.961Z,99499.25
2019-02-05T08:32:35.495Z,99499.28
2019-02-05T08:35:07.982Z,99509.38
2019-02-05T08:37:43.098Z,99509.83
2019-02-05T08:40:14.197Z,99523.28
2019-02-05T08:42:49.127Z,99519.46
2019-02-05T08:45:26.596Z,99523.88
2019-02-05T08:47:54.603Z,99522.66
2019-02-05T08:50:22.687Z,99524.05
2019-02-05T08:52:49.417Z,99523.28
2019-02-05T08:55:17.362Z,99527.73
2019-02-05T08:57:44.108Z,99518.31
2019-02-05T09:00:16.455Z,99524.16
2019-02-05T09:02:44.447Z,99523.88
2019-02-05T09:05:11.412Z,99520.89
2019-02-05T09:07:37.998Z,99520.44
2019-02-05T09:10:05.602Z,99508.38
2019-02-05T09:12:32.133Z,99512.73
2019-02-05T09:15:06.806Z,99511.18
2019-02-05T09:17:33.278Z,99518.70
2019-02-05T09:20:04.826Z,99520.55
2019-02-05T09:22:31.446Z,99524.52
2019-02-05T09:24:58.239Z,99517.25
2019-02-05T09:27:24.985Z,99523.90
2019-02-05T09:29:51.493Z,99528.83
2019-02-05T09:32:18.874Z,99531.00
2019-02-05T09:34:45.398Z,99535.80
2019-02-05T09:37:12.982Z,99535.90
2019-02-05T09:39:39.486Z,99540.54
2019-02-05T09:42:10.621Z,99543.13
2019-02-05T09:44:37.229Z,99544.43
2019-02-05T09:47:04.077Z,99551.83
2019-02-05T09:49:30.819Z,99551.24
2019-02-05T09:51:57.359Z,99556.16
2019-02-05T09:54:24.091Z,99554.80
2019-02-05T09:56:50.589Z,99561.13
2019-02-05T09:59:17.146Z,99558.91
2019-02-05T10:01:44.220Z,99567.15
2019-02-05T10:04:10.808Z,99565.95
2019-02-05T10:06:37.407Z,99558.56
2019-02-05T10:09:06.874Z,99568.23
2019-02-05T10:11:34.025Z,99557.11
2019-02-05T10:14:00.779Z,99557.17
2019-02-05T10:16:27.294Z,99563.20
2019-02-05T10:18:55.056Z,99557.63
2019-02-05T10:21:21.703Z,99568.33
2019-02-05T10:23:48.483Z,99563.80
2019-02-05T10:26:15.033Z,99568.23
2019-02-05T10:28:41.499Z,99566.94
2019-02-05T10:31:08.285Z,99573.56
2019-02-05T10:33:34.919Z,99575.12
2019-02-05T10:36:02.489Z,99581.09
2019-02-05T10:38:29.339Z,99585.20
2019-02-05T10:40:56.282Z,99587.30
2019-02-05T10:43:26.019Z,99589.02
2019-02-05T10:45:53.042Z,99582.60
2019-02-05T10:48:20.080Z,99588.73
2019-02-05T10:50:47.522Z,99581.20
2019-02-05T10:53:14.083Z,99585.45
2019-02-05T10:55:42.096Z,99583.73
2019-02-05T10:58:09.071Z,99587.30
2019-02-05T11:00:35.644Z,99586.95
2019-02-05T11:03:02.859Z,99586.49
2019-02-05T11:05:30.265Z,99586.56
2019-02-05T11:07:57.106Z,99589.64
2019-02-05T11:10:23.736Z,99582.67
2019-02-05T11:12:50.606Z,99584.98
2019-02-05T11:15:19.245Z,99585.95
2019-02-05T11:17:45.933Z,99579.92
2019-02-05T11:20:15.045Z,99581.38
2019-02-05T11:22:42.465Z,99578.53
2019-02-05T11:25:09.224Z,99581.71
2019-02-05T11:27:35.941Z,99581.64
2019-02-05T11:30:04.082Z,99588.72
2019-02-05T11:32:30.721Z,99579.56
2019-02-05T11:34:57.217Z,99583.95
2019-02-05T11:37:23.991Z,99579.27
2019-02-05T11:39:50.512Z,99584.08
2019-02-05T11:42:17.501Z,99589.72
2019-02-05T11:44:44.417Z,99591.95
2019-02-05T11:47:12.083Z,99586.53
2019-02-05T11:49:38.732Z,99579.72
2019-02-05T11:52:05.274Z,99579.32
2019-02-05T11:54:31.969Z,99582.64
2019-02-05T11:56:58.490Z,99589.89
2019-02-05T11:59:24.971Z,99587.17
2019-02-05T12:01:51.500Z,99587.54
2019-02-05T12:04:18.024Z,99581.50
2019-02-05T12:06:45.021Z,99580.29
2019-02-05T12:09:20.122Z,99577.72
2019-02-05T12:11:46.835Z,99576.00
2019-02-05T12:14:13.356Z,99572.70
2019-02-05T12:16:40.143Z,99576.20
2019-02-05T12:19:07.068Z,99569.41
2019-02-05T12:21:33.574Z,99563.23
2019-02-05T12:24:00.284Z,99561.97
2019-02-05T12:26:27.326Z,99559.77
2019-02-05T12:28:53.812Z,99560.07
2019-02-05T12:31:20.354Z,99562.33
2019-02-05T12:33:47.021Z,99558.92
2019-02-05T12:36:13.525Z,99548.92
2019-02-05T12:38:40.030Z,99546.32
2019-02-05T12:41:06.888Z,99541.97
2019-02-05T12:43:33.341Z,99549.73
2019-02-05T12:45:59.968Z,99544.42
2019-02-05T12:48:29.774Z,99542.88
2019-02-05T12:50:56.551Z,99541.43
2019-02-05T12:53:23.520Z,99537.05
2019-02-05T12:55:49.998Z,99537.93
2019-02-05T12:58:17.720Z,99536.69
2019-02-05T13:00:56.446Z,99534.23
2019-02-05T13:03:15.496Z,99530.67
2019-02-05T13:05:42.768Z,99537.09
2019-02-05T13:08:09.388Z,99538.08
2019-02-05T13:10:38.432Z,99529.69
2019-02-05T13:13:06.062Z,99532.14
2019-02-05T13:15:32.822Z,99530.84
2019-02-05T13:18:05.023Z,99535.59
2019-02-05T13:20:31.931Z,99541.95
2019-02-05T13:22:59.035Z,99532.53
2019-02-05T13:25:26.847Z,99537.78
2019-02-05T13:27:53.590Z,99541.38
2019-02-05T13:30:22.404Z,99544.48
2019-02-05T13:32:49.549Z,99550.05
2019-02-05T13:35:16.763Z,99548.47
2019-02-05T13:37:43.352Z,99545.05
2019-02-05T13:40:13.083Z,99541.72
2019-02-05T13:42:40.042Z,99542.77
2019-02-05T13:45:06.900Z,99541.60
2019-02-05T13:47:33.524Z,99539.39
2019-02-05T13:50:00.530Z,99546.05
2019-02-05T13:52:27.527Z,99546.54
2019-02-05T13:54:54.343Z,99542.58
2019-02-05T13:57:27.096Z,99541.81
2019-02-05T13:59:53.641Z,99540.59
2019-02-05T14:02:21.844Z,99544.49
2019-02-05T14:04:48.375Z,99541.13
2019-02-05T14:07:14.932Z,99540.99
2019-02-05T14:09:41.397Z,99536.59
2019-02-05T14:12:11.235Z,99537.06
2019-02-05T14:14:38.116Z,99534.09
2019-02-05T14:17:08.101Z,99534.05
2019-02-05T14:19:34.581Z,99533.72
2019-02-05T14:22:01.371Z,99536.77
2019-02-05T14:24:27.931Z,99533.64
2019-02-05T14:26:54.718Z,99543.00
2019-02-05T14:29:21.309Z,99547.14
2019-02-05T14:31:47.794Z,99545.08
2019-02-05T14:34:14.386Z,99549.23
2019-02-05T14:36:40.921Z,99545.58
2019-02-05T14:39:08.749Z,99557.70
2019-02-05T14:41:36.490Z,99561.98
2019-02-05T14:44:03.919Z,99560.20
2019-02-05T14:46:30.512Z,99561.41
2019-02-05T14:48:57.022Z,99563.55
2019-02-05T14:51:24.091Z,99567.06
2019-02-05T14:53:50.675Z,99572.64
2019-02-05T14:56:17.746Z,99573.89
2019-02-05T14:58:44.322Z,99569.98
2019-02-05T15:01:11.196Z,99573.07
2019-02-05T15:03:37.717Z,99567.42
2019-02-05T15:06:04.396Z,99571.80
2019-02-05T15:08:31.021Z,99570.92
2019-02-05T15:10:57.703Z,99567.84
2019-02-05T15:13:25.299Z,99573.02
2019-02-05T15:15:51.864Z,99578.48
2019-02-05T15:18:20.663Z,99578.59
2019-02-05T15:20:48.106Z,99588.36
2019-02-05T15:23:14.639Z,99581.71
2019-02-05T15:25:41.270Z,99581.84
2019-02-05T15:28:08.170Z,99588.09
2019-02-05T15:30:39.662Z,99589.16
2019-02-05T15:33:46.829Z,99593.79
2019-02-05T15:36:45.019Z,99594.56
2019-02-05T15:39:12.864Z,99594.42
2019-02-05T15:41:40.863Z,99596.98
2019-02-05T15:44:07.815Z,99596.91
2019-02-05T15:46:34.668Z,99597.96
2019-02-05T15:49:01.152Z,99594.73
2019-02-05T15:51:28.473Z,99589.75
2019-02-05T15:53:54.946Z,99602.08
2019-02-05T15:56:21.555Z,99597.55
2019-02-05T15:58:48.128Z,99603.80
2019-02-05T16:01:15.375Z,99609.27
2019-02-05T16:03:47.078Z,99610.36
2019-02-05T16:06:13.857Z,99608.04
2019-02-05T16:08:41.088Z,99616.84
2019-02-05T16:11:08.830Z,99614.01
2019-02-05T16:13:36.857Z,99610.30
2019-02-05T16:16:03.556Z,99607.98
2019-02-05T16:18:30.149Z,99603.02
2019-02-05T16:20:58.276Z,99604.61
2019-02-05T16:23:25.038Z,99604.06
2019-02-05T16:25:52.665Z,99597.55
2019-02-05T16:28:19.271Z,99594.50
2019-02-05T16:30:45.822Z,99595.14
2019-02-05T16:33:12.408Z,99599.66
2019-02-05T16:35:39.004Z,99606.63
2019-02-05T16:38:05.940Z,99602.83
2019-02-05T16:40:34.250Z,99603.06
2019-02-05T16:43:00.872Z,99601.56
2019-02-05T16:45:28.744Z,99601.94
2019-02-05T16:47:55.750Z,99604.91
2019-02-05T16:50:24.829Z,99606.70
2019-02-05T16:52:51.850Z,99602.40
2019-02-05T16:55:18.388Z,99606.58
2019-02-05T16:57:45.209Z,99602.19
2019-02-05T17:00:17.478Z,99609.36
2019-02-05T17:02:45.305Z,99613.62
2019-02-05T17:05:12.374Z,99611.86
2019-02-05T17:07:42.122Z,99613.16
2019-02-05T17:10:10.193Z,99613.06
2019-02-05T17:12:36.660Z,99618.70
2019-02-05T17:15:05.060Z,99618.33
2019-02-05T17:17:32.003Z,99624.09
2019-02-05T17:19:58.493Z,99626.09
2019-02-05T17:22:25.583Z,99621.66
2019-02-05T17:24:52.132Z,99627.91
2019-02-05T17:27:18.614Z,99632.95
2019-02-05T17:29:45.151Z,99631.02
2019-02-05T17:32:11.831Z,99636.98
2019-02-05T17:34:38.713Z,99640.26
2019-02-05T17:37:05.394Z,99639.66
2019-02-05T17:39:32.391Z,99645.25
2019-02-05T17:41:59.461Z,99645.23
2019-02-05T17:44:26.046Z,99648.77
2019-02-05T17:46:52.859Z,99649.52
2019-02-05T17:49:19.594Z,99650.98
2019-02-05T17:51:46.698Z,99655.81
2019-02-05T17:54:15.130Z,99651.83
2019-02-05T17:56:41.852Z,99656.58
2019-02-05T17:59:09.309Z,99653.40
2019-02-05T18:01:36.007Z,99659.59
2019-02-05T18:04:03.088Z,99655.03
2019-02-05T18:06:29.693Z,99660.96
2019-02-05T18:08:56.293Z,99657.77
2019-02-05T18:11:23.070Z,99664.88
2019-02-05T18:13:49.674Z,99666.79
2019-02-05T18:16:18.461Z,99663.23
2019-02-05T18:18:45.283Z,99663.27
2019-02-05T18:21:12.281Z,99677.39
2019-02-05T18:23:38.822Z,99670.94
2019-02-05T18:26:06.593Z,99678.39
2019-02-05T18:28:33.481Z,99675.55
2019-02-05T18:31:00.039Z,99676.89
2019-02-05T18:33:26.665Z,99667.19
2019-02-05T18:35:53.477Z,99671.30
2019-02-05T18:38:20.469Z,99672.03
2019-02-05T18:40:47.023Z,99670.45
2019-02-05T18:43:13.673Z,99676.91
2019-02-05T18:45:40.478Z,99671.73
2019-02-05T18:48:07.752Z,99682.08
2019-02-05T18:50:34.437Z,99685.52
2019-02-05T18:53:00.958Z,99686.30
2019-02-05T18:55:28.970Z,99686.70
2019-02-05T18:58:08.430Z,99686.67
2019-02-05T19:00:31.474Z,99686.67
2019-02-05T19:02:59.910Z,99675.59
2019-02-05T19:05:27.655Z,99679.11
2019-02-05T19:07:54.523Z,99681.08
2019-02-05T19:10:22.807Z,99682.38
2019-02-05T19:12:49.478Z,99683.19
2019-02-05T19:15:18.458Z,99682.66
2019-02-05T19:17:45.295Z,99691.54
2019-02-05T19:20:12.963Z,99680.55
2019-02-05T19:22:39.775Z,99684.42
2019-02-05T19:25:19.143Z,99675.54
2019-02-05T19:27:46.121Z,99680.09
2019-02-05T19:30:13.096Z,99679.91
2019-02-05T19:32:39.736Z,99677.19
2019-02-05T19:35:06.610Z,99673.89
2019-02-05T19:37:33.861Z,99681.87
2019-02-05T19:40:00.896Z,99681.70
2019-02-05T19:42:28.237Z,99690.63
2019-02-05T19:45:02.320Z,99693.67
2019-02-05T19:47:32.067Z,99704.07
2019-02-05T19:50:00.032Z,99696.81
2019-02-05T19:52:28.001Z,99702.84
2019-02-05T19:54:55.043Z,99700.80
2019-02-05T19:57:21.692Z,99703.53
2019-02-05T19:59:49.659Z,99697.69
2019-02-05T20:02:16.441Z,99697.27
2019-02-05T20:04:43.603Z,99698.97
2019-02-05T20:07:10.873Z,99701.55
2019-02-05T20:09:37.904Z,99698.08
2019-02-05T20:12:05.804Z,99700.52
2019-02-05T20:14:32.605Z,99699.64
2019-02-05T20:17:04.916Z,99693.67
2019-02-05T20:19:32.856Z,99699.30
2019-02-05T20:22:01.649Z,99696.05
2019-02-05T20:24:29.054Z,99695.76
2019-02-05T20:26:58.126Z,99692.71
2019-02-05T20:29:24.918Z,99698.47
2019-02-05T20:31:52.738Z,99699.64
2019-02-05T20:34:21.097Z,99697.19
2019-02-05T20:36:48.524Z,99691.09
2019-02-05T20:39:17.323Z,99693.20
2019-02-05T20:41:44.529Z,99699.22
2019-02-05T20:44:12.163Z,99696.98
2019-02-05T20:46:39.591Z,99700.66
2019-02-05T20:49:06.308Z,99695.73
2019-02-05T20:51:37.340Z,99697.64
2019-02-05T20:54:05.317Z,99692.87
2019-02-05T20:56:39.817Z,99691.38
2019-02-05T20:59:07.158Z,99693.14
2019-02-05T21:01:38.920Z,99701.52
2019-02-05T21:04:09.784Z,99699.97
2019-02-05T21:06:50.607Z,99695.73
2019-02-05T21:09:20.652Z,99694.30
2019-02-05T21:11:50.105Z,99693.89
2019-02-05T21:14:17.052Z,99691.11
2019-02-05T21:16:48.452Z,99694.88
2019-02-05T21:19:22.534Z,99684.80
2019-02-05T21:21:50.321Z,99689.00
2019-02-05T21:24:19.521Z,99691.02
2019-02-05T21:26:46.404Z,99690.38
2019-02-05T21:29:13.074Z,99693.12
2019-02-05T21:31:41.781Z,99700.25
2019-02-05T21:34:15.262Z,99699.78
2019-02-05T21:36:37.555Z,99696.73
2019-02-05T21:39:08.409Z,99698.23
2019-02-05T21:41:35.307Z,99698.86
2019-02-05T21:44:01.879Z,99699.33
2019-02-05T21:46:28.626Z,99699.95
2019-02-05T21:48:55.184Z,99702.52
2019-02-05T21:51:21.957Z,99697.66
2019-02-05T21:54:30.983Z,99690.03
2019-02-05T21:56:58.162Z,99688.58
2019-02-05T21:59:24.738Z,99691.02
2019-02-05T22:01:51.644Z,99692.82
2019-02-05T22:04:26.619Z,99690.55
2019-02-05T22:06:46.779Z,99686.47
2019-02-05T22:09:13.739Z,99690.90
2019-02-05T22:11:41.107Z,99684.91
2019-02-05T22:14:08.256Z,99696.28
2019-02-05T22:16:35.111Z,99695.34
2019-02-05T22:19:02.351Z,99696.28
2019-02-05T22:21:29.108Z,99699.59
2019-02-05T22:23:55.770Z,99697.94
2019-02-05T22:26:22.330Z,99691.37
2019-02-05T22:28:49.654Z,99697.30
2019-02-05T22:31:16.145Z,99698.28
2019-02-05T22:33:43.027Z,99699.44
2019-02-05T22:36:09.415Z,99701.33
2019-02-05T22:38:36.327Z,99701.74
2019-02-05T22:41:03.285Z,99700.45
2019-02-05T22:43:29.789Z,99694.66
2019-02-05T22:45:56.313Z,99682.95
2019-02-05T22:48:23.992Z,99691.19
2019-02-05T22:50:50.808Z,99686.50
2019-02-05T22:53:19.294Z,99688.30
2019-02-05T22:55:46.405Z,99686.69
2019-02-05T22:58:13.325Z,99697.23
2019-02-05T23:00:51.286Z,99688.47
2019-02-05T23:03:24.576Z,99694.34
2019-02-05T23:06:25.504Z,99687.73
2019-02-05T23:08:52.858Z,99690.05
2019-02-05T23:11:44.569Z,99688.62
2019-02-05T23:14:11.535Z,99689.17
2019-02-05T23:16:38.655Z,99684.95
2019-02-05T23:19:05.514Z,99690.11
2019-02-05T23:21:36.152Z,99683.87
2019-02-05T23:24:03.600Z,99687.13
2019-02-05T23:26:30.131Z,99678.38
2019-02-05T23:28:56.743Z,99675.30
2019-02-05T23:31:23.254Z,99681.44
2019-02-05T23:33:49.825Z,99672.72
2019-02-05T23:36:16.561Z,99676.02
2019-02-05T23:38:43.656Z,99674.72
2019-02-05T23:41:10.561Z,99676.57
2019-02-05T23:43:37.152Z,99675.08
2019-02-05T23:46:03.887Z,99669.27
2019-02-05T23:48:31.361Z,99670.97
2019-02-05T23:50:57.841Z,99666.43
2019-02-05T23:53:24.424Z,99669.36
2019-02-05T23:55:51.167Z,99663.00
2019-02-05T23:58:18.884Z,99663.20
